Time;durP1;ratioP1;P1;durP2;ratioP2;P2;SDS_P1;SDS_P2;PMS_P1;PMS_P2;Temp;Humidity;BMP_temperature;BMP_pressure;BME280_temperature;BME280_humidity;BME280_pressure;Samples;Min_cycle;Max_cycle;Signal;HPM_P1;HPM_P2
2023/04/02 00:00:34;;;;;;;1.00;1.00;;;;;;;12.79;52.32;98571.53;4417845;32;33278;-66
2023/04/02 00:03:07;;;;;;;0.50;0.50;;;;;;;12.61;53.40;98564.50;4398138;32;33816;-64
2023/04/02 00:05:53;;;;;;;0.90;0.85;;;;;;;13.27;51.52;98559.41;4418077;32;33165;-65
2023/04/02 00:08:37;;;;;;;0.57;0.57;;;;;;;13.19;51.87;98563.88;4415135;32;33904;-64
2023/04/02 00:11:06;;;;;;;0.70;0.60;;;;;;;13.00;52.40;98562.25;4417293;32;35151;-65
2023/04/02 00:13:45;;;;;;;0.37;0.37;;;;;;;13.14;51.93;98564.34;4416357;32;34919;-64
2023/04/02 00:16:22;;;;;;;0.50;0.50;;;;;;;12.98;52.47;98566.94;4420949;32;33550;-64
2023/04/02 00:18:52;;;;;;;0.57;0.57;;;;;;;13.03;52.43;98573.53;4417751;32;33312;-64
2023/04/02 00:21:38;;;;;;;0.60;0.60;;;;;;;13.16;52.03;98572.25;4420464;32;35046;-64
2023/04/02 00:24:14;;;;;;;1.10;1.00;;;;;;;13.30;51.50;98563.62;4415918;32;34105;-63
2023/04/02 00:26:47;;;;;;;0.57;0.57;;;;;;;13.32;51.31;98571.53;4426643;32;33650;-63
2023/04/02 00:29:16;;;;;;;1.85;1.02;;;;;;;13.37;51.17;98570.03;4420665;32;33693;-64
2023/04/02 00:31:48;;;;;;;0.60;0.60;;;;;;;13.43;51.11;98576.63;4418541;32;33896;-64
2023/04/02 00:34:20;;;;;;;0.47;0.47;;;;;;;13.42;50.99;98574.94;4417100;32;34040;-64
2023/04/02 00:36:49;;;;;;;0.40;0.40;;;;;;;13.33;51.23;98578.59;4413712;32;32715;-64
2023/04/02 00:39:28;;;;;;;0.60;0.60;;;;;;;13.47;50.79;98575.28;4418363;32;32260;-64
2023/04/02 00:42:03;;;;;;;1.17;0.73;;;;;;;13.44;50.96;98581.81;4416251;32;33591;-63
2023/04/02 00:44:43;;;;;;;;;;;;;;;13.59;50.37;98579.38;4418502;32;34842;-64
2023/04/02 00:47:20;;;;;;;1.77;1.15;;;;;;;13.49;50.59;98587.56;4418694;32;33863;-64
2023/04/02 00:49:53;;;;;;;0.77;0.73;;;;;;;13.46;50.69;98587.88;4419293;32;32626;-64
2023/04/02 00:52:23;;;;;;;0.43;0.35;;;;;;;13.32;51.06;98580.41;4420354;32;34707;-63
2023/04/02 00:54:58;;;;;;;0.70;0.70;;;;;;;13.38;50.90;98582.47;4413785;32;34106;-64
2023/04/02 00:57:26;;;;;;;0.30;0.30;;;;;;;13.37;51.10;98591.53;4417992;32;33462;-63
2023/04/02 01:00:21;;;;;;;0.50;0.50;;;;;;;13.38;51.02;98587.84;4417302;32;34648;-63
2023/04/02 01:03:16;;;;;;;0.57;0.57;;;;;;;13.09;52.17;98590.84;4419281;32;34211;-63
2023/04/02 01:05:49;;;;;;;0.32;0.32;;;;;;;13.49;51.03;98584.88;4417665;32;34180;-63
2023/04/02 01:08:41;;;;;;;0.62;0.60;;;;;;;13.50;51.15;98574.97;4420798;32;33552;-64
2023/04/02 01:11:27;;;;;;;0.50;0.50;;;;;;;13.50;51.12;98577.66;4419425;32;32526;-64
2023/04/02 01:14:08;;;;;;;0.40;0.40;;;;;;;13.12;52.91;98570.88;4415063;32;33838;-64
2023/04/02 01:16:53;;;;;;;1.45;0.95;;;;;;;13.61;50.88;98580.06;4415041;32;34075;-63
2023/04/02 01:19:41;;;;;;;3.62;0.95;;;;;;;13.72;51.05;98579.75;4417320;32;33251;-63
2023/04/02 01:22:19;;;;;;;0.40;0.40;;;;;;;13.46;51.71;98579.00;4418362;32;33835;-66
2023/04/02 01:24:47;;;;;;;1.00;0.82;;;;;;;13.76;50.87;98577.56;4410108;32;34992;-67
2023/04/02 01:27:27;;;;;;;4.12;1.27;;;;;;;13.93;50.19;98584.72;4417158;32;34870;-65
2023/04/02 01:29:56;;;;;;;1.65;0.90;;;;;;;14.03;49.96;98589.06;4419357;32;33579;-65
2023/04/02 01:32:27;;;;;;;1.92;1.30;;;;;;;14.11;49.49;98586.41;4416079;32;34835;-65
2023/04/02 01:34:56;;;;;;;4.97;1.85;;;;;;;14.12;49.40;98597.00;4415319;32;34144;-66
2023/04/02 01:37:23;;;;;;;5.57;2.12;;;;;;;14.23;49.12;98598.53;4413219;32;34838;-64
2023/04/02 01:40:10;;;;;;;1.00;0.75;;;;;;;14.21;49.10;98601.38;4418382;32;32143;-65
2023/04/02 01:43:18;;;;;;;2.28;0.82;;;;;;;14.19;48.88;98598.03;4416552;32;35644;-64
2023/04/02 01:45:46;;;;;;;1.02;0.95;;;;;;;14.19;48.94;98600.72;4413748;32;33736;-64
2023/04/02 01:48:18;;;;;;;1.35;0.73;;;;;;;14.18;48.95;98601.72;4417186;32;33857;-66
2023/04/02 01:50:48;;;;;;;0.88;0.82;;;;;;;14.05;49.48;98592.44;4419993;32;33403;-64
2023/04/02 01:53:18;;;;;;;2.85;1.77;;;;;;;14.13;49.12;98600.56;4416246;32;33443;-64
2023/04/02 01:56:11;;;;;;;1.10;0.65;;;;;;;14.07;49.25;98593.97;4418869;32;34123;-64
2023/04/02 01:58:39;;;;;;;0.75;0.73;;;;;;;14.20;48.80;98599.72;4414069;32;33865;-64
2023/04/02 02:01:13;;;;;;;0.95;0.93;;;;;;;14.16;48.85;98606.44;4418154;32;33301;-64
2023/04/02 02:03:43;;;;;;;1.40;1.20;;;;;;;14.18;48.71;98608.97;4414473;32;33256;-65
2023/04/02 02:06:13;;;;;;;0.93;0.62;;;;;;;14.25;48.50;98612.66;4417342;32;34145;-64
2023/04/02 02:08:47;;;;;;;3.20;0.62;;;;;;;14.21;48.54;98614.84;4414673;32;33820;-66
2023/04/02 02:11:19;;;;;;;0.50;0.50;;;;;;;14.23;48.45;98613.84;4415839;32;34201;-64
2023/04/02 02:13:49;;;;;;;1.25;0.77;;;;;;;14.18;48.60;98609.78;4419380;32;32623;-65
2023/04/02 02:16:17;;;;;;;0.62;0.50;;;;;;;14.19;48.62;98616.03;4417993;32;34442;-66
2023/04/02 02:18:51;;;;;;;0.57;0.57;;;;;;;14.20;48.52;98625.78;4419234;32;34084;-64
2023/04/02 02:21:30;;;;;;;0.93;0.80;;;;;;;14.18;48.57;98622.41;4423089;32;33627;-64
2023/04/02 02:23:59;;;;;;;0.55;0.55;;;;;;;14.12;48.57;98613.13;4418712;32;33474;-64
2023/04/02 02:26:27;;;;;;;0.77;0.68;;;;;;;13.83;49.56;98615.41;4418727;32;34674;-64
2023/04/02 02:28:56;;;;;;;0.57;0.52;;;;;;;13.72;49.88;98613.87;4414303;32;34074;-65
2023/04/02 02:31:28;;;;;;;0.35;0.35;;;;;;;13.42;50.91;98612.56;4416197;32;33609;-64
2023/04/02 02:34:07;;;;;;;1.05;0.77;;;;;;;13.47;50.88;98612.91;4410130;32;33657;-64
2023/04/02 02:36:54;;;;;;;0.62;0.60;;;;;;;13.45;51.06;98614.91;4410687;32;33793;-63
2023/04/02 02:39:43;;;;;;;0.95;0.88;;;;;;;13.27;51.50;98613.16;4418073;32;35178;-63
2023/04/02 02:42:14;;;;;;;0.40;0.40;;;;;;;12.97;52.64;98613.59;4415649;32;34339;-65
2023/04/02 02:44:43;;;;;;;0.82;0.82;;;;;;;13.16;52.21;98615.22;4417314;32;33225;-67
2023/04/02 02:47:20;;;;;;;0.65;0.62;;;;;;;13.26;51.90;98616.84;4423396;32;35069;-63
2023/04/02 02:49:54;;;;;;;0.47;0.47;;;;;;;13.31;51.92;98619.06;4420072;32;34148;-66
2023/04/02 02:52:25;;;;;;;0.40;0.40;;;;;;;13.30;52.25;98621.91;4424890;32;35047;-65
2023/04/02 02:54:56;;;;;;;1.37;0.77;;;;;;;13.14;52.84;98614.56;4420242;32;34713;-66
2023/04/02 02:57:27;;;;;;;0.52;0.52;;;;;;;13.16;52.71;98604.47;4418063;32;35168;-64
2023/04/02 02:59:57;;;;;;;0.55;0.55;;;;;;;13.17;52.70;98604.34;4425515;32;34488;-64
2023/04/02 03:02:26;;;;;;;0.60;0.60;;;;;;;13.05;53.22;98606.44;4421651;32;32346;-64
2023/04/02 03:04:55;;;;;;;0.98;0.70;;;;;;;13.27;52.82;98613.16;4416731;32;35109;-65
2023/04/02 03:07:25;;;;;;;3.45;1.50;;;;;;;13.32;52.63;98601.06;4417319;32;34018;-64
2023/04/02 03:10:00;;;;;;;1.35;0.65;;;;;;;13.13;53.48;98611.03;4414877;32;33393;-63
2023/04/02 03:12:59;;;;;;;0.80;0.73;;;;;;;13.31;53.02;98611.00;4430315;32;32070;-64
2023/04/02 03:15:34;;;;;;;0.55;0.55;;;;;;;13.37;52.56;98599.59;4416371;32;33844;-63
2023/04/02 03:18:07;;;;;;;1.85;0.65;;;;;;;13.22;52.95;98601.16;4420915;32;33820;-63
2023/04/02 03:20:52;;;;;;;1.98;0.80;;;;;;;13.38;52.45;98603.12;4415197;32;34800;-64
2023/04/02 03:23:39;;;;;;;1.02;0.98;;;;;;;13.31;52.44;98602.09;4421313;32;34301;-63
2023/04/02 03:26:12;;;;;;;0.60;0.60;;;;;;;13.30;52.42;98605.78;4411880;32;33667;-65
2023/04/02 03:28:45;;;;;;;0.70;0.60;;;;;;;13.20;52.86;98612.09;4421462;32;33732;-63
2023/04/02 03:31:27;;;;;;;0.60;0.60;;;;;;;13.47;51.97;98615.59;4418259;32;33742;-67
2023/04/02 03:33:58;;;;;;;1.00;0.93;;;;;;;13.46;52.08;98617.47;4414106;32;34613;-63
2023/04/02 03:36:27;;;;;;;0.52;0.52;;;;;;;12.53;54.39;98618.97;4415518;32;34914;-64
2023/04/02 03:39:08;;;;;;;0.55;0.55;;;;;;;13.41;52.10;98613.56;4424648;32;34880;-63
2023/04/02 03:41:44;;;;;;;0.50;0.50;;;;;;;13.58;51.56;98612.66;4417187;32;33948;-63
2023/04/02 03:44:26;;;;;;;0.77;0.77;;;;;;;13.69;51.14;98617.72;4420979;32;33606;-66
2023/04/02 03:46:57;;;;;;;0.52;0.52;;;;;;;13.65;50.99;98621.75;4406791;32;34893;-63
2023/04/02 03:49:32;;;;;;;0.50;0.50;;;;;;;13.23;52.26;98622.50;4421436;32;33730;-63
2023/04/02 03:52:10;;;;;;;0.20;0.20;;;;;;;13.18;52.37;98632.03;4418914;32;35146;-65
2023/04/02 03:54:39;;;;;;;0.40;0.40;;;;;;;12.85;53.23;98634.50;4414561;32;33161;-65
2023/04/02 03:57:46;;;;;;;0.95;0.85;;;;;;;13.20;52.16;98628.19;4414083;32;112091;-63
2023/04/02 04:00:19;;;;;;;0.45;0.45;;;;;;;13.17;52.65;98636.59;4413304;32;33886;-64
2023/04/02 04:02:56;;;;;;;1.10;0.77;;;;;;;13.23;52.25;98633.25;4416011;32;35236;-66
2023/04/02 04:05:34;;;;;;;;;;;;;;;13.12;52.93;98633.50;4418537;32;33837;-64
2023/04/02 04:08:05;;;;;;;0.40;0.40;;;;;;;13.16;52.56;98629.53;4416092;32;33610;-64
2023/04/02 04:10:34;;;;;;;0.57;0.50;;;;;;;13.16;52.58;98640.28;4413978;32;33635;-65
2023/04/02 04:13:06;;;;;;;0.40;0.40;;;;;;;13.05;52.76;98640.53;4414114;32;34067;-66
2023/04/02 04:15:55;;;;;;;0.60;0.60;;;;;;;12.88;53.46;98644.94;4419261;32;33160;-63
2023/04/02 04:19:03;;;;;;;0.55;0.55;;;;;;;13.11;52.89;98647.13;4421301;32;33620;-63
2023/04/02 04:21:37;;;;;;;0.43;0.43;;;;;;;13.13;52.86;98645.97;4422806;32;34989;-64
2023/04/02 04:24:12;;;;;;;0.65;0.65;;;;;;;13.20;52.47;98646.19;4417470;32;33870;-64
2023/04/02 04:27:51;;;;;;;0.45;0.45;;;;;;;13.27;52.50;98652.63;4426606;32;33501;-64
2023/04/02 04:30:29;;;;;;;0.75;0.50;;;;;;;13.49;51.73;98652.09;4359654;32;33693;-63
2023/04/02 04:33:00;;;;;;;0.60;0.60;;;;;;;13.39;52.18;98653.22;4379677;32;33604;-63
2023/04/02 04:35:31;;;;;;;0.65;0.65;;;;;;;13.66;51.25;98655.69;4392082;32;34040;-63
2023/04/02 04:38:10;;;;;;;0.88;0.75;;;;;;;13.79;50.83;98666.00;4416549;32;33232;-64
2023/04/02 04:40:51;;;;;;;1.12;0.70;;;;;;;13.85;50.63;98667.22;4415641;32;33580;-64
2023/04/02 04:43:36;;;;;;;1.40;0.88;;;;;;;13.79;50.88;98668.69;4411728;32;34026;-65
2023/04/02 04:46:16;;;;;;;1.35;1.15;;;;;;;13.87;50.65;98663.34;4410187;32;33918;-64
2023/04/02 04:48:59;;;;;;;1.10;0.62;;;;;;;13.92;50.48;98670.94;4420902;32;33525;-64
2023/04/02 04:51:35;;;;;;;;;;;;;;;13.65;51.03;98675.53;4418634;32;32215;-64
2023/04/02 04:54:04;;;;;;;2.47;1.48;;;;;;;13.77;50.95;98673.38;4409536;32;34014;-63
2023/04/02 04:56:32;;;;;;;2.17;1.30;;;;;;;13.56;52.31;98675.66;4418042;32;37492;-63
2023/04/02 04:59:12;;;;;;;2.12;1.02;;;;;;;14.02;51.24;98674.31;4419384;32;33522;-63
2023/04/02 05:01:49;;;;;;;0.95;0.82;;;;;;;13.94;51.34;98674.31;4415289;32;33490;-64
2023/04/02 05:04:33;;;;;;;0.60;0.60;;;;;;;14.04;50.93;98671.50;4414530;32;35281;-64
2023/04/02 05:07:08;;;;;;;0.47;0.47;;;;;;;14.40;49.87;98678.31;4422387;32;35035;-63
2023/04/02 05:09:41;;;;;;;1.27;0.88;;;;;;;14.33;49.99;98682.66;4418353;32;33283;-63
2023/04/02 05:12:34;;;;;;;0.80;0.70;;;;;;;14.60;49.46;98680.72;4417321;32;33806;-65
2023/04/02 05:15:10;;;;;;;0.88;0.62;;;;;;;14.44;49.82;98685.06;4417868;32;34021;-64
2023/04/02 05:18:19;;;;;;;0.80;0.77;;;;;;;14.24;50.71;98688.19;4414020;32;33848;-63
2023/04/02 05:21:23;;;;;;;0.88;0.75;;;;;;;14.56;50.44;98680.22;4417130;32;34924;-64
2023/04/02 05:23:53;;;;;;;1.25;1.02;;;;;;;14.53;50.45;98685.09;4413916;32;34963;-63
2023/04/02 05:26:25;;;;;;;0.62;0.62;;;;;;;15.06;49.34;98692.72;4417921;32;33831;-64
2023/04/02 05:29:17;;;;;;;0.88;0.73;;;;;;;14.92;50.39;98685.28;4418624;32;33983;-64
2023/04/02 05:31:56;;;;;;;1.65;0.73;;;;;;;15.73;47.71;98686.22;4417190;32;33395;-63
2023/04/02 05:34:27;;;;;;;0.43;0.43;;;;;;;15.64;47.85;98688.09;4427310;32;33937;-66
2023/04/02 05:36:55;;;;;;;0.60;0.60;;;;;;;15.35;48.47;98697.59;4419941;32;34923;-64
2023/04/02 05:39:24;;;;;;;0.93;0.68;;;;;;;15.54;47.60;98693.69;4408065;32;33867;-65
2023/04/02 05:42:04;;;;;;;2.53;0.50;;;;;;;15.53;47.58;98705.44;4416179;32;33639;-66
2023/04/02 05:44:35;;;;;;;1.12;0.93;;;;;;;15.48;48.02;98697.06;4416112;32;33697;-65
2023/04/02 05:47:16;;;;;;;0.65;0.65;;;;;;;14.95;49.18;98703.81;4416608;32;34260;-67
2023/04/02 05:49:49;;;;;;;0.60;0.60;;;;;;;14.96;49.54;98702.84;4416332;32;33171;-66
2023/04/02 05:52:29;;;;;;;0.55;0.55;;;;;;;14.95;49.11;98711.91;4422213;32;33727;-66
2023/04/02 05:55:11;;;;;;;0.93;0.75;;;;;;;14.98;49.77;98711.56;4417571;32;33901;-63
2023/04/02 05:57:44;;;;;;;1.65;0.98;;;;;;;15.34;48.62;98717.47;4416344;32;34998;-63
2023/04/02 06:00:35;;;;;;;1.35;0.90;;;;;;;14.86;49.70;98719.16;4412585;32;33898;-63
2023/04/02 06:03:07;;;;;;;0.50;0.50;;;;;;;14.66;51.45;98723.16;4416955;32;33548;-64
2023/04/02 06:05:39;;;;;;;0.40;0.40;;;;;;;15.53;49.25;98716.25;4413418;32;33532;-63
2023/04/02 06:08:22;;;;;;;0.50;0.50;;;;;;;15.50;48.05;98713.87;4413787;32;34202;-64
2023/04/02 06:11:03;;;;;;;1.17;0.55;;;;;;;15.65;48.16;98718.59;4418027;32;32763;-64
2023/04/02 06:13:31;;;;;;;0.85;0.75;;;;;;;15.40;48.29;98717.78;4409932;32;34715;-64
2023/04/02 06:16:00;;;;;;;1.20;0.80;;;;;;;15.57;48.26;98720.31;4419279;32;32876;-63
2023/04/02 06:18:30;;;;;;;0.98;0.90;;;;;;;14.94;50.07;98730.94;4419341;32;33744;-63
2023/04/02 06:21:00;;;;;;;1.10;0.98;;;;;;;15.60;48.12;98727.19;4420004;32;33421;-64
2023/04/02 06:23:47;;;;;;;0.57;0.57;;;;;;;15.49;48.99;98730.25;4415339;32;33314;-64
2023/04/02 06:26:28;;;;;;;1.00;0.80;;;;;;;15.70;48.32;98735.16;4408871;32;33800;-64
2023/04/02 06:29:04;;;;;;;2.08;1.12;;;;;;;15.86;47.72;98728.84;4415102;32;32793;-66
2023/04/02 06:31:41;;;;;;;1.40;0.90;;;;;;;15.98;47.97;98739.09;4412670;32;34940;-64
2023/04/02 06:34:18;;;;;;;0.75;0.62;;;;;;;15.84;48.34;98743.34;4426733;32;32174;-63
2023/04/02 06:36:49;;;;;;;1.40;0.90;;;;;;;15.91;48.18;98746.19;4414812;32;33399;-63
2023/04/02 06:39:22;;;;;;;3.80;1.20;;;;;;;15.81;48.36;98735.59;4409151;32;33636;-64
2023/04/02 06:42:09;;;;;;;0.30;0.30;;;;;;;14.92;50.53;98741.88;4417938;32;33813;-65
2023/04/02 06:44:40;;;;;;;1.50;1.12;;;;;;;15.63;49.25;98747.59;4415714;32;33456;-66
2023/04/02 06:47:36;;;;;;;1.20;0.75;;;;;;;15.63;49.33;98747.59;4425485;32;32280;-66
2023/04/02 06:50:05;;;;;;;1.17;1.05;;;;;;;15.60;49.65;98749.63;4414674;32;35074;-68
2023/04/02 06:52:38;;;;;;;1.12;1.02;;;;;;;15.43;50.21;98752.50;4404156;32;32981;-66
2023/04/02 06:55:19;;;;;;;2.55;1.00;;;;;;;15.61;49.89;98755.84;4418473;32;33586;-65
2023/04/02 06:57:47;;;;;;;2.03;1.05;;;;;;;15.20;50.46;98746.94;4414951;32;33310;-66
2023/04/02 07:00:41;;;;;;;1.20;1.05;;;;;;;15.38;50.66;98751.16;4419206;32;34758;-66
2023/04/02 07:03:31;;;;;;;0.82;0.77;;;;;;;15.46;50.48;98753.00;4432194;32;34221;-66
2023/04/02 07:06:01;;;;;;;0.43;0.43;;;;;;;15.51;50.85;98755.22;4424658;32;33337;-66
2023/04/02 07:08:29;;;;;;;2.55;0.75;;;;;;;15.94;49.32;98750.41;4417203;32;34423;-66
2023/04/02 07:10:57;;;;;;;1.00;0.88;;;;;;;15.48;50.12;98755.53;4420246;32;34827;-66
2023/04/02 07:13:25;;;;;;;1.35;0.80;;;;;;;15.32;50.53;98764.47;4420602;32;35333;-65
2023/04/02 07:15:54;;;;;;;1.62;0.98;;;;;;;15.59;50.26;98756.00;4428004;32;34604;-63
2023/04/02 07:18:25;;;;;;;7.22;1.05;;;;;;;15.79;49.84;98761.06;4420496;32;33435;-63
2023/04/02 07:20:54;;;;;;;0.65;0.65;;;;;;;15.06;51.59;98762.78;4421979;32;32534;-64
2023/04/02 07:23:22;;;;;;;0.98;0.55;;;;;;;14.94;51.19;98758.72;4422376;32;33987;-63
2023/04/02 07:25:52;;;;;;;1.75;1.42;;;;;;;15.68;49.86;98774.94;4418068;32;34275;-62
2023/04/02 07:28:20;;;;;;;0.88;0.62;;;;;;;15.37;49.76;98770.19;4420821;32;33543;-63
2023/04/02 07:30:50;;;;;;;3.30;0.93;;;;;;;14.94;51.40;98780.28;4421820;32;32883;-65
2023/04/02 07:33:20;;;;;;;1.48;1.17;;;;;;;14.99;51.50;98779.78;4424719;32;35315;-62
2023/04/02 07:35:49;;;;;;;1.33;0.90;;;;;;;14.44;52.60;98779.28;4419150;32;34417;-64
2023/04/02 07:38:16;;;;;;;1.95;1.17;;;;;;;14.98;51.84;98776.25;4420874;32;33824;-63
2023/04/02 07:40:44;;;;;;;1.60;1.23;;;;;;;15.48;49.70;98771.72;4422493;32;33487;-64
2023/04/02 07:43:12;;;;;;;2.10;1.00;;;;;;;14.59;52.94;98782.22;4422067;32;33572;-63
2023/04/02 07:45:40;;;;;;;1.45;0.62;;;;;;;14.84;52.25;98779.59;4427757;32;33353;-63
2023/04/02 07:48:11;;;;;;;0.98;0.85;;;;;;;15.70;50.39;98781.00;4420927;32;34987;-64
2023/04/02 07:50:39;;;;;;;1.35;0.90;;;;;;;15.41;51.12;98784.19;4418237;32;33834;-65
2023/04/02 07:53:25;;;;;;;1.27;0.90;;;;;;;15.51;51.25;98787.56;4420558;32;33829;-64
2023/04/02 07:55:53;;;;;;;2.08;1.08;;;;;;;15.61;50.43;98780.97;4417193;32;33143;-65
2023/04/02 07:58:21;;;;;;;2.47;1.33;;;;;;;15.22;51.34;98790.78;4420113;32;33307;-64
2023/04/02 08:00:48;;;;;;;1.37;1.12;;;;;;;15.81;50.06;98792.25;4417484;32;33773;-64
2023/04/02 08:03:16;;;;;;;1.02;0.90;;;;;;;15.64;50.69;98790.59;4417046;32;34192;-64
2023/04/02 08:05:50;;;;;;;1.25;0.70;;;;;;;15.49;51.09;98798.50;4420862;32;32514;-64
2023/04/02 08:08:17;;;;;;;1.15;0.85;;;;;;;15.34;50.98;98789.41;4422510;32;33645;-64
2023/04/02 08:10:46;;;;;;;1.62;1.05;;;;;;;15.07;51.79;98786.03;4423306;32;33831;-65
2023/04/02 08:13:14;;;;;;;6.95;1.60;;;;;;;15.89;50.27;98793.25;4420513;32;33934;-66
2023/04/02 08:15:42;;;;;;;5.28;1.30;;;;;;;15.95;50.35;98801.50;4417591;32;32283;-64
2023/04/02 08:18:10;;;;;;;4.10;1.67;;;;;;;15.47;50.94;98800.53;4420264;32;33703;-64
2023/04/02 08:20:38;;;;;;;1.75;1.27;;;;;;;15.32;51.43;98807.62;4421709;32;35016;-64
2023/04/02 08:23:14;;;;;;;4.35;1.52;;;;;;;15.00;51.94;98806.56;4422126;32;33150;-65
2023/04/02 08:25:41;;;;;;;2.78;1.60;;;;;;;14.72;52.56;98807.84;4419538;32;33937;-64
2023/04/02 08:28:09;;;;;;;2.47;1.65;;;;;;;14.98;51.63;98811.25;4420129;32;32516;-65
2023/04/02 08:30:37;;;;;;;2.47;0.98;;;;;;;14.57;53.12;98808.44;4423411;32;34063;-63
2023/04/02 08:33:05;;;;;;;3.37;1.23;;;;;;;14.79;52.92;98801.62;4421251;32;35285;-64
2023/04/02 08:35:33;;;;;;;2.60;1.52;;;;;;;15.71;50.68;98812.34;4430204;32;34312;-63
2023/04/02 08:38:01;;;;;;;2.17;1.25;;;;;;;15.39;51.46;98816.72;4420233;32;33539;-63
2023/04/02 08:40:40;;;;;;;3.15;1.40;;;;;;;14.93;52.68;98812.75;4421798;32;32884;-64
2023/04/02 08:43:37;;;;;;;1.58;1.00;;;;;;;15.24;51.70;98824.59;4417225;32;34237;-64
2023/04/02 08:46:25;;;;;;;1.65;1.35;;;;;;;15.54;51.18;98827.69;4424780;32;33584;-63
2023/04/02 08:49:00;;;;;;;2.50;0.95;;;;;;;15.30;51.85;98823.09;4418758;32;32763;-64
2023/04/02 08:51:32;;;;;;;1.45;1.30;;;;;;;15.08;52.58;98824.59;4414266;32;33803;-64
2023/04/02 08:54:24;;;;;;;2.58;1.55;;;;;;;15.48;51.05;98828.34;4419413;32;34088;-65
2023/04/02 08:56:58;;;;;;;1.30;1.17;;;;;;;14.89;52.21;98834.69;4412191;32;34650;-65
2023/04/02 08:59:32;;;;;;;3.65;2.15;;;;;;;14.98;52.42;98842.75;4419854;32;33998;-68
2023/04/02 09:02:21;;;;;;;3.03;1.33;;;;;;;15.17;52.31;98836.22;4418202;32;34054;-65
2023/04/02 09:04:49;;;;;;;2.72;1.62;;;;;;;15.45;51.74;98836.78;4419285;32;33884;-66
2023/04/02 09:07:17;;;;;;;2.25;1.58;;;;;;;16.07;50.15;98843.31;4420174;32;33126;-68
2023/04/02 09:09:47;;;;;;;1.40;1.17;;;;;;;15.96;50.04;98842.84;4420804;32;33446;-65
2023/04/02 09:12:20;;;;;;;1.05;0.85;;;;;;;16.34;49.56;98840.38;4417160;32;33576;-65
2023/04/02 09:15:03;;;;;;;3.85;1.73;;;;;;;16.93;47.95;98840.84;4419352;32;34953;-66
2023/04/02 09:17:31;;;;;;;1.85;1.15;;;;;;;16.58;48.38;98847.56;4420576;32;34507;-66
2023/04/02 09:20:28;;;;;;;1.52;1.23;;;;;;;16.69;48.37;98844.47;4423459;32;34769;-65
2023/04/02 09:22:56;;;;;;;1.50;1.27;;;;;;;15.57;51.04;98846.22;4422134;32;34089;-65
2023/04/02 09:25:26;;;;;;;2.47;1.50;;;;;;;15.73;51.06;98838.16;4420477;32;32933;-66
2023/04/02 09:27:55;;;;;;;1.37;1.02;;;;;;;15.68;51.36;98848.59;4420719;32;34385;-64
2023/04/02 09:31:01;;;;;;;2.58;1.65;;;;;;;15.94;51.06;98845.72;4418259;32;33911;-65
2023/04/02 09:33:43;;;;;;;3.17;1.50;;;;;;;16.20;50.45;98855.44;4421987;32;34760;-64
2023/04/02 09:36:36;;;;;;;1.45;1.25;;;;;;;15.81;50.84;98853.47;4410819;32;34855;-63
2023/04/02 09:39:18;;;;;;;2.60;1.52;;;;;;;15.65;51.52;98854.31;4421068;32;33448;-63
2023/04/02 09:41:46;;;;;;;1.58;1.08;;;;;;;16.11;50.09;98860.00;4421216;32;33849;-65
2023/04/02 09:44:31;;;;;;;2.03;1.27;;;;;;;16.53;49.12;98857.06;4421987;32;35430;-63
2023/04/02 09:47:05;;;;;;;1.67;1.08;;;;;;;16.57;48.73;98862.94;4417473;32;32847;-63
2023/04/02 09:49:37;;;;;;;2.15;1.02;;;;;;;16.27;49.34;98867.25;4423984;32;33601;-62
2023/04/02 09:52:27;;;;;;;2.00;1.35;;;;;;;16.43;49.55;98861.78;4417493;32;34849;-65
2023/04/02 09:55:29;;;;;;;1.37;1.17;;;;;;;16.11;50.37;98869.97;4428280;32;33996;-64
2023/04/02 09:58:14;;;;;;;1.95;1.58;;;;;;;15.88;51.22;98865.28;4412926;32;33805;-64
2023/04/02 10:00:50;;;;;;;2.55;1.70;;;;;;;16.48;50.04;98875.63;4419473;32;34691;-65
2023/04/02 10:03:23;;;;;;;2.78;1.40;;;;;;;15.50;53.15;98878.38;4405924;32;35365;-64
2023/04/02 10:06:10;;;;;;;2.60;1.45;;;;;;;16.21;51.31;98876.03;4419239;32;34924;-63
2023/04/02 10:08:41;;;;;;;1.95;1.42;;;;;;;15.82;52.27;98876.75;4420982;32;32894;-64
2023/04/02 10:11:30;;;;;;;3.03;1.87;;;;;;;15.38;54.25;98874.34;4417001;32;34000;-65
2023/04/02 10:14:22;;;;;;;2.25;1.30;;;;;;;15.51;54.07;98879.25;4411305;32;35059;-64
2023/04/02 10:16:51;;;;;;;0.70;0.65;;;;;;;15.46;53.96;98877.03;4420176;32;32723;-66
2023/04/02 10:19:50;;;;;;;4.10;1.98;;;;;;;16.06;52.96;98873.19;4418803;32;34323;-64
2023/04/02 10:22:19;;;;;;;0.93;0.80;;;;;;;15.03;55.00;98868.22;4420829;32;34568;-66
2023/04/02 10:24:48;;;;;;;3.78;1.48;;;;;;;15.29;54.07;98868.09;4416668;32;33794;-65
2023/04/02 10:27:38;;;;;;;14.40;2.17;;;;;;;15.22;54.72;98864.38;4417539;32;33866;-65
2023/04/02 10:30:26;;;;;;;4.40;2.12;;;;;;;15.89;53.68;98861.59;4418538;32;34737;-65
2023/04/02 10:33:00;;;;;;;1.77;1.10;;;;;;;16.13;52.60;98862.56;4420879;32;34799;-66
2023/04/02 10:35:37;;;;;;;5.62;1.75;;;;;;;16.72;50.85;98871.13;4409632;32;33738;-66
2023/04/02 10:38:07;;;;;;;1.62;1.35;;;;;;;16.03;51.47;98860.03;4417887;32;34943;-66
2023/04/02 10:40:39;;;;;;;3.72;2.10;;;;;;;16.27;50.33;98864.53;4418881;32;33819;-66
2023/04/02 10:43:43;;;;;;;2.55;1.73;;;;;;;16.00;51.00;98860.38;4417109;32;33285;-66
2023/04/02 10:46:20;;;;;;;1.35;0.90;;;;;;;16.11;50.57;98860.00;4417633;32;35024;-66
2023/04/02 10:49:07;;;;;;;1.85;1.48;;;;;;;16.20;50.90;98848.19;4416241;32;33932;-66
2023/04/02 10:51:37;;;;;;;2.40;1.25;;;;;;;16.44;50.38;98854.56;4416597;32;34778;-66
2023/04/02 10:54:32;;;;;;;1.58;1.02;;;;;;;16.95;49.28;98853.19;4420336;32;32698;-66
2023/04/02 10:57:07;;;;;;;1.50;0.93;;;;;;;17.38;48.28;98850.03;4421196;32;34647;-67
2023/04/02 10:59:38;;;;;;;2.73;1.70;;;;;;;17.91;47.18;98837.44;4413093;32;32009;-66
2023/04/02 11:02:30;;;;;;;1.75;1.40;;;;;;;18.31;46.05;98844.31;4417814;32;33156;-67
2023/04/02 11:05:03;;;;;;;2.80;1.48;;;;;;;18.32;46.21;98842.44;4421657;32;32621;-66
2023/04/02 11:07:35;;;;;;;1.52;1.08;;;;;;;18.16;45.98;98847.00;4417180;32;34155;-67
2023/04/02 11:10:03;;;;;;;1.40;1.10;;;;;;;18.22;45.35;98852.72;4415278;32;35100;-67
2023/04/02 11:12:42;;;;;;;1.30;1.05;;;;;;;18.38;44.74;98850.66;4416791;32;35000;-66
2023/04/02 11:15:15;;;;;;;2.33;1.73;;;;;;;18.53;44.75;98850.66;4418037;32;34490;-66
2023/04/02 11:17:44;;;;;;;2.08;1.35;;;;;;;18.79;44.44;98852.91;4418758;32;34003;-67
2023/04/02 11:21:00;;;;;;;1.95;1.50;;;;;;;18.65;44.14;98844.75;4419041;32;32916;-65
2023/04/02 11:23:29;;;;;;;1.37;1.05;;;;;;;18.30;44.66;98845.34;4407908;32;34064;-68
2023/04/02 11:26:37;;;;;;;2.70;1.65;;;;;;;17.54;46.16;98846.38;4421480;32;33321;-67
2023/04/02 11:29:25;;;;;;;2.58;1.65;;;;;;;17.59;46.68;98842.09;4418532;32;33630;-66
2023/04/02 11:32:31;;;;;;;1.65;1.17;;;;;;;17.51;46.48;98844.84;4418076;32;34360;-65
2023/04/02 11:35:02;;;;;;;1.90;1.42;;;;;;;18.04;45.83;98834.97;4417505;32;33984;-68
2023/04/02 11:37:43;;;;;;;1.40;1.12;;;;;;;17.96;45.30;98842.31;4418364;32;33598;-67
2023/04/02 11:40:11;;;;;;;1.75;1.23;;;;;;;17.70;46.37;98835.41;4419457;32;33743;-65
2023/04/02 11:42:44;;;;;;;1.42;1.15;;;;;;;17.19;47.25;98827.84;4431192;32;35170;-65
2023/04/02 11:45:26;;;;;;;1.92;1.30;;;;;;;17.69;46.80;98833.72;4428334;32;34134;-66
2023/04/02 11:48:00;;;;;;;2.50;1.67;;;;;;;17.19;47.84;98833.25;4422507;32;33603;-66
2023/04/02 11:50:40;;;;;;;1.85;1.40;;;;;;;17.27;47.34;98832.38;4419583;32;32785;-66
2023/04/02 11:53:10;;;;;;;2.72;1.37;;;;;;;17.36;48.01;98830.44;4417170;32;35273;-65
2023/04/02 11:55:40;;;;;;;3.87;1.90;;;;;;;17.44;47.22;98833.09;4419968;32;33949;-65
2023/04/02 11:58:27;;;;;;;2.28;1.35;;;;;;;17.36;48.21;98833.13;4414052;32;31981;-65
2023/04/02 12:01:06;;;;;;;4.32;1.85;;;;;;;17.65;47.35;98827.81;4412087;32;33895;-66
2023/04/02 12:03:40;;;;;;;2.40;1.67;;;;;;;17.73;46.91;98835.03;4417339;32;33821;-66
2023/04/02 12:06:34;;;;;;;3.35;1.37;;;;;;;17.96;45.19;98824.19;4417991;32;34404;-66
2023/04/02 12:09:23;;;;;;;1.62;1.12;;;;;;;17.45;46.32;98827.47;4415528;32;34755;-65
2023/04/02 12:11:53;;;;;;;2.97;1.35;;;;;;;17.89;45.07;98828.69;4410892;32;33568;-65
2023/04/02 12:14:41;;;;;;;1.37;1.08;;;;;;;18.42;44.25;98828.59;4420011;32;35042;-65
2023/04/02 12:17:27;;;;;;;2.22;1.50;;;;;;;18.60;43.75;98821.78;4420307;32;34096;-68
2023/04/02 12:20:01;;;;;;;1.87;1.25;;;;;;;18.71;43.88;98819.63;4418228;32;33349;-69